Time;durP1;ratioP1;P1;durP2;ratioP2;P2;SDS_P1;SDS_P2;PMS_P1;PMS_P2;Temp;Humidity;BMP_temperature;BMP_pressure;BME280_temperature;BME280_humidity;BME280_pressure;Samples;Min_cycle;Max_cycle;Signal;HPM_P1;HPM_P2
2022/12/11 00:01:11;;;;;;;16.67;8.32;;;-2.40;99.90;;;;;;5030880;28;20130;-67
2022/12/11 00:03:37;;;;;;;18.75;8.82;;;-2.40;99.90;;;;;;5031160;28;20496;-68
2022/12/11 00:06:09;;;;;;;18.23;9.15;;;-2.40;99.90;;;;;;5031517;28;20045;-68
2022/12/11 00:08:36;;;;;;;17.25;8.95;;;-2.30;99.90;;;;;;5031372;28;20115;-67
2022/12/11 00:11:02;;;;;;;16.42;8.50;;;-2.20;99.90;;;;;;5030433;28;20041;-67
2022/12/11 00:13:27;;;;;;;19.42;9.07;;;-2.30;99.90;;;;;;5030878;28;20049;-67
2022/12/11 00:15:53;;;;;;;15.75;8.20;;;-2.40;99.90;;;;;;5031411;28;20111;-67
2022/12/11 00:18:19;;;;;;;18.20;8.48;;;-2.40;99.90;;;;;;5031106;28;20135;-67
2022/12/11 00:20:45;;;;;;;18.38;9.02;;;-2.40;99.90;;;;;;5029940;28;20067;-67
2022/12/11 00:23:11;;;;;;;17.50;8.43;;;-2.50;99.90;;;;;;5030231;28;20045;-67
2022/12/11 00:25:45;;;;;;;17.05;8.20;;;-2.50;99.90;;;;;;5039882;28;20116;-67
2022/12/11 00:28:17;;;;;;;17.17;8.52;;;-2.50;99.90;;;;;;5034810;28;20116;-67
2022/12/11 00:30:44;;;;;;;19.48;8.80;;;-2.50;99.90;;;;;;5040462;28;20546;-67
2022/12/11 00:33:11;;;;;;;18.58;8.88;;;-2.50;99.90;;;;;;5034006;28;20447;-68
2022/12/11 00:35:42;;;;;;;16.80;8.48;;;-2.40;99.90;;;;;;5046721;28;20037;-68
2022/12/11 00:38:08;;;;;;;;;;;-2.40;99.90;;;;;;5001262;28;20044;-67
2022/12/11 00:40:36;;;;;;;15.95;8.15;;;-2.50;99.90;;;;;;5024918;28;19960;-68
2022/12/11 00:43:03;;;;;;;17.95;9.05;;;-2.50;99.90;;;;;;5030550;28;20103;-68
2022/12/11 00:45:28;;;;;;;18.83;8.77;;;-2.50;99.90;;;;;;5027340;28;20052;-68
2022/12/11 00:47:54;;;;;;;18.15;9.05;;;-2.50;99.90;;;;;;5033610;28;20045;-68
2022/12/11 00:50:20;;;;;;;19.13;9.15;;;-2.50;99.90;;;;;;5036710;28;20041;-67
2022/12/11 00:52:46;;;;;;;18.50;8.30;;;-2.60;99.90;;;;;;5040448;28;20068;-68
2022/12/11 00:55:12;;;;;;;19.10;9.68;;;-2.60;99.90;;;;;;5042419;28;20037;-68
2022/12/11 00:57:38;;;;;;;23.75;11.02;;;-2.50;99.90;;;;;;5033471;28;20045;-68
2022/12/11 01:00:08;;;;;;;21.92;10.40;;;-2.40;99.90;;;;;;5046341;28;20045;-68
2022/12/11 01:02:33;;;;;;;18.60;8.80;;;-2.60;99.90;;;;;;5036079;28;20061;-68
2022/12/11 01:04:59;;;;;;;20.10;9.88;;;-2.80;99.90;;;;;;5039112;28;20136;-68
2022/12/11 01:07:25;;;;;;;23.52;10.25;;;-2.90;99.90;;;;;;5044254;28;20041;-68
2022/12/11 01:12:35;;;;;;;23.33;11.30;;;-2.90;99.90;;;;;;5041705;28;20592;-68
2022/12/11 01:15:01;;;;;;;17.98;8.57;;;-3.10;99.90;;;;;;5041457;28;20120;-68
2022/12/11 01:17:26;;;;;;;17.25;8.73;;;-3.10;99.90;;;;;;5034582;28;20041;-68
2022/12/11 01:19:53;;;;;;;17.85;8.55;;;-2.90;99.90;;;;;;5028484;28;20646;-68
2022/12/11 01:22:19;;;;;;;17.15;8.68;;;-2.90;99.90;;;;;;5029497;28;20083;-67
2022/12/11 01:24:45;;;;;;;16.92;8.73;;;-2.90;99.90;;;;;;5028763;28;20537;-67
2022/12/11 01:27:11;;;;;;;20.85;9.32;;;-2.80;99.90;;;;;;5029431;28;20052;-67
2022/12/11 01:29:36;;;;;;;20.05;8.32;;;-2.90;99.90;;;;;;5045464;28;20037;-68
2022/12/11 01:32:02;;;;;;;15.65;7.88;;;-2.90;99.90;;;;;;5032941;28;20048;-68
2022/12/11 01:34:29;;;;;;;18.40;8.80;;;-2.80;99.90;;;;;;5042199;28;20466;-67
2022/12/11 01:36:55;;;;;;;16.17;8.35;;;-2.80;99.90;;;;;;5039923;28;20487;-67
2022/12/11 01:39:21;;;;;;;15.27;7.63;;;-2.70;99.90;;;;;;5035055;28;20045;-68
2022/12/11 01:41:46;;;;;;;17.25;7.85;;;-2.70;99.90;;;;;;5045834;28;20072;-68
2022/12/11 01:44:15;;;;;;;17.90;8.52;;;-2.80;99.90;;;;;;5032765;28;20059;-68
2022/12/11 01:46:41;;;;;;;17.95;8.85;;;-2.70;99.90;;;;;;5039690;28;20034;-67
2022/12/11 01:49:11;;;;;;;18.38;8.50;;;-2.80;99.90;;;;;;5029217;28;20068;-67
2022/12/11 01:52:09;;;;;;;17.37;8.20;;;-2.90;99.90;;;;;;5029679;28;20049;-67
2022/12/11 01:54:35;;;;;;;22.35;8.68;;;-2.80;99.90;;;;;;5023600;28;20283;-68
2022/12/11 01:57:05;;;;;;;16.10;8.40;;;-2.80;99.90;;;;;;5036919;28;20095;-67
2022/12/11 01:59:36;;;;;;;15.18;8.10;;;-2.90;99.90;;;;;;5026304;28;20052;-68
2022/12/11 02:02:06;;;;;;;;;;;-2.90;99.90;;;;;;5014460;28;20049;-67
2022/12/11 02:04:34;;;;;;;15.85;7.82;;;-2.80;99.90;;;;;;5041841;28;19981;-67
2022/12/11 02:07:00;;;;;;;15.38;7.85;;;-2.80;99.90;;;;;;5028458;28;20722;-68
2022/12/11 02:09:32;;;;;;;16.67;8.07;;;-3.00;99.90;;;;;;5043341;28;20083;-68
2022/12/11 02:12:01;;;;;;;17.02;8.63;;;-3.00;99.90;;;;;;5031669;28;20160;-67
2022/12/11 02:14:58;;;;;;;17.65;7.82;;;-3.00;99.90;;;;;;5041154;28;20079;-68
2022/12/11 02:17:58;;;;;;;17.23;7.75;;;-3.10;99.90;;;;;;5009270;28;20061;-68
2022/12/11 02:20:36;;;;;;;15.52;7.15;;;-3.00;99.90;;;;;;5021095;28;20044;-68
2022/12/11 02:23:06;;;;;;;17.35;8.25;;;-3.00;99.90;;;;;;5012115;28;20404;-68
2022/12/11 02:25:50;;;;;;;17.63;7.95;;;-3.00;99.90;;;;;;5043742;28;20423;-68
2022/12/11 02:28:24;;;;;;;15.80;7.65;;;-3.00;99.90;;;;;;5019076;28;20068;-68
2022/12/11 02:30:59;;;;;;;16.70;7.68;;;-3.10;99.90;;;;;;5038276;28;20049;-67
2022/12/11 02:33:47;;;;;;;15.05;7.22;;;-3.10;99.90;;;;;;5028967;28;20045;-67
2022/12/11 02:36:17;;;;;;;20.10;8.13;;;-3.30;99.90;;;;;;5017619;28;20044;-68
2022/12/11 02:38:49;;;;;;;18.60;7.78;;;-3.30;99.90;;;;;;5047865;28;20494;-68
2022/12/11 02:41:16;;;;;;;17.20;7.60;;;-3.30;99.90;;;;;;5033985;28;20049;-67
2022/12/11 02:43:43;;;;;;;18.20;7.32;;;-3.30;99.90;;;;;;5044849;28;20037;-68
2022/12/11 02:46:10;;;;;;;15.65;7.40;;;-3.30;99.90;;;;;;5031866;28;20037;-68
2022/12/11 02:48:38;;;;;;;15.00;6.78;;;-3.20;99.90;;;;;;5021867;28;20447;-67
2022/12/11 02:51:07;;;;;;;19.58;7.75;;;-3.10;99.90;;;;;;5039208;28;20052;-68
2022/12/11 02:53:37;;;;;;;15.00;7.18;;;-3.10;99.90;;;;;;5032111;28;20065;-68
2022/12/11 02:56:17;;;;;;;15.70;8.10;;;-3.20;99.90;;;;;;5044356;28;20124;-68
2022/12/11 02:58:48;;;;;;;17.00;7.20;;;-3.20;99.90;;;;;;5036450;28;20045;-67
2022/12/11 03:01:14;;;;;;;14.77;7.35;;;-3.30;99.90;;;;;;5047372;28;20139;-67
2022/12/11 03:03:40;;;;;;;15.35;8.00;;;-3.50;99.90;;;;;;5031039;28;20133;-67
2022/12/11 03:06:07;;;;;;;18.23;7.88;;;-3.50;99.90;;;;;;5025561;28;20564;-68
2022/12/11 03:08:33;;;;;;;15.40;7.75;;;-3.60;99.90;;;;;;5027586;28;20111;-67
2022/12/11 03:10:58;;;;;;;13.00;6.95;;;-3.70;99.90;;;;;;5038352;28;20040;-68
2022/12/11 03:13:28;;;;;;;17.45;8.55;;;-3.70;99.90;;;;;;5032588;28;20125;-67
2022/12/11 03:16:15;;;;;;;19.50;7.82;;;-3.80;99.90;;;;;;5043735;28;20048;-67
2022/12/11 03:18:59;;;;;;;15.68;6.90;;;-3.90;99.90;;;;;;5027920;28;20044;-68
2022/12/11 03:21:34;;;;;;;18.08;6.88;;;-3.70;99.90;;;;;;5041920;28;20086;-68
2022/12/11 03:24:09;;;;;;;17.33;7.30;;;-3.70;99.90;;;;;;5029598;28;20045;-67
2022/12/11 03:26:41;;;;;;;14.30;6.88;;;-3.60;99.90;;;;;;5038394;28;20041;-67
2022/12/11 03:29:26;;;;;;;19.02;6.95;;;-3.60;99.90;;;;;;5039078;28;20041;-67
2022/12/11 03:32:11;;;;;;;13.65;6.30;;;-3.70;99.90;;;;;;5045425;28;20083;-67
2022/12/11 03:34:50;;;;;;;13.95;6.57;;;-3.80;99.90;;;;;;5035306;28;20045;-67
2022/12/11 03:37:17;;;;;;;14.95;6.47;;;-3.80;99.90;;;;;;5034222;28;20549;-67
2022/12/11 03:39:48;;;;;;;15.70;6.85;;;-3.90;99.90;;;;;;5027712;28;20539;-67
2022/12/11 03:42:17;;;;;;;12.52;7.07;;;-4.00;99.90;;;;;;5042003;28;20060;-67
2022/12/11 03:44:48;;;;;;;16.38;6.22;;;-4.00;99.90;;;;;;5027139;28;20041;-67
2022/12/11 03:47:19;;;;;;;14.23;6.63;;;-4.10;99.90;;;;;;5040182;28;20041;-67
2022/12/11 03:49:47;;;;;;;10.57;5.22;;;-4.20;99.90;;;;;;5030302;28;20040;-67
2022/12/11 03:52:14;;;;;;;17.05;7.22;;;-4.20;99.90;;;;;;5042625;28;20064;-68
2022/12/11 03:54:42;;;;;;;14.00;6.85;;;-4.30;99.90;;;;;;5035466;28;20084;-67
2022/12/11 03:57:14;;;;;;;18.65;6.47;;;-4.20;99.90;;;;;;5033930;28;20060;-67
2022/12/11 03:59:39;;;;;;;16.42;6.68;;;-4.30;99.90;;;;;;5043282;28;20040;-67
2022/12/11 04:02:09;;;;;;;14.93;6.85;;;-4.20;99.90;;;;;;5030448;28;20857;-67
2022/12/11 04:04:40;;;;;;;14.63;6.47;;;-4.20;99.90;;;;;;5020713;28;20052;-68
2022/12/11 04:07:07;;;;;;;12.07;6.28;;;-4.10;99.90;;;;;;5038731;28;20052;-68
2022/12/11 04:09:34;;;;;;;14.52;7.30;;;-4.00;99.90;;;;;;5030400;28;20116;-68
2022/12/11 04:11:59;;;;;;;14.18;6.93;;;-4.10;99.90;;;;;;5042558;28;20461;-68
2022/12/11 04:17:10;;;;;;;14.88;6.57;;;-4.00;99.90;;;;;;5033610;28;20036;-68
2022/12/11 04:25:06;;;;;;;17.88;7.72;;;-3.90;99.90;;;;;;5034240;28;20060;-68
2022/12/11 04:27:50;;;;;;;15.48;6.97;;;-3.80;99.90;;;;;;5041826;28;20547;-68
2022/12/11 04:30:21;;;;;;;15.07;7.45;;;-3.80;99.90;;;;;;5017072;28;20126;-68
2022/12/11 04:32:47;;;;;;;21.15;7.63;;;-3.90;99.90;;;;;;5036744;28;20829;-68
2022/12/11 04:35:13;;;;;;;17.10;8.45;;;-3.80;99.90;;;;;;5021471;28;20052;-68
2022/12/11 04:37:40;;;;;;;17.38;8.15;;;-3.90;99.90;;;;;;5031900;28;20045;-68
2022/12/11 04:40:08;;;;;;;19.17;9.00;;;-3.90;99.90;;;;;;5046864;28;20068;-67
2022/12/11 04:42:34;;;;;;;18.55;8.20;;;-3.90;99.90;;;;;;5037842;28;20428;-68
2022/12/11 04:45:00;;;;;;;19.15;8.70;;;-3.90;99.90;;;;;;5038766;28;20041;-68
2022/12/11 04:47:26;;;;;;;16.05;7.28;;;-4.00;99.90;;;;;;5045129;28;20126;-68
2022/12/11 04:49:52;;;;;;;16.35;8.07;;;-4.10;99.90;;;;;;5033579;28;20061;-68
2022/12/11 04:52:18;;;;;;;19.08;7.50;;;-4.10;99.90;;;;;;5038479;28;20127;-68
2022/12/11 04:54:44;;;;;;;16.23;7.68;;;-4.10;99.90;;;;;;5038892;28;20087;-68
2022/12/11 04:57:09;;;;;;;18.30;8.00;;;-4.00;99.90;;;;;;5045103;28;20594;-68
2022/12/11 04:59:36;;;;;;;14.85;7.25;;;-4.00;99.90;;;;;;5030475;28;20045;-67
2022/12/11 05:02:02;;;;;;;20.17;9.60;;;-4.10;99.90;;;;;;5049030;28;20639;-68
2022/12/11 05:04:33;;;;;;;20.40;8.45;;;-4.20;99.90;;;;;;5042912;28;20041;-68
2022/12/11 05:06:59;;;;;;;18.13;7.95;;;-4.20;99.90;;;;;;5040717;28;20043;-68
2022/12/11 05:09:26;;;;;;;23.08;8.48;;;-4.30;99.90;;;;;;5034095;28;20040;-68
2022/12/11 05:11:52;;;;;;;19.25;7.88;;;-4.20;99.90;;;;;;5045467;28;20757;-68
2022/12/11 05:14:18;;;;;;;13.73;7.55;;;-4.20;99.90;;;;;;5029236;28;20037;-68
2022/12/11 05:16:43;;;;;;;19.38;8.30;;;-4.20;99.90;;;;;;5038167;28;20515;-68
2022/12/11 05:19:09;;;;;;;16.77;8.25;;;-4.20;99.90;;;;;;5036992;28;20121;-68
2022/12/11 05:21:35;;;;;;;18.10;8.32;;;-4.20;99.90;;;;;;5044508;28;20045;-68
2022/12/11 05:24:01;;;;;;;16.92;7.38;;;-4.20;99.90;;;;;;5031607;28;20033;-68
2022/12/11 05:26:27;;;;;;;18.52;8.65;;;-4.20;99.90;;;;;;5043615;28;20042;-68
2022/12/11 05:28:53;;;;;;;16.80;7.63;;;-4.20;99.90;;;;;;5011627;28;20745;-68
2022/12/11 05:31:22;;;;;;;17.90;7.70;;;-4.20;99.90;;;;;;5029563;28;21079;-68
2022/12/11 05:33:49;;;;;;;18.85;7.88;;;-4.30;99.90;;;;;;5029120;28;20118;-68
2022/12/11 05:36:18;;;;;;;20.85;8.95;;;-4.20;99.90;;;;;;5029669;28;20033;-68
2022/12/11 05:38:44;;;;;;;14.50;7.07;;;-4.20;99.90;;;;;;5029851;28;20065;-68
2022/12/11 05:41:13;;;;;;;17.27;8.05;;;-4.10;99.90;;;;;;5028932;28;20045;-68
2022/12/11 05:43:39;;;;;;;18.98;7.72;;;-4.10;99.90;;;;;;5043740;28;20037;-68
2022/12/11 05:46:07;;;;;;;17.80;7.55;;;-4.20;99.90;;;;;;5032045;28;20040;-67
2022/12/11 05:48:33;;;;;;;18.23;8.38;;;-4.10;99.90;;;;;;5042394;28;20041;-68
2022/12/11 05:51:00;;;;;;;16.08;7.78;;;-4.20;99.90;;;;;;5038276;28;20044;-68
2022/12/11 05:53:27;;;;;;;18.13;7.78;;;-4.20;99.90;;;;;;5035546;28;20120;-68
2022/12/11 05:55:53;;;;;;;14.27;6.85;;;-4.20;99.90;;;;;;5033113;28;20045;-67
2022/12/11 05:58:20;;;;;;;18.48;7.45;;;-4.20;99.90;;;;;;5045093;28;20033;-67
2022/12/11 06:00:47;;;;;;;20.55;8.43;;;-4.20;99.90;;;;;;5035776;28;20041;-67
2022/12/11 06:03:13;;;;;;;22.17;8.43;;;-4.30;99.90;;;;;;5048528;28;20124;-67
2022/12/11 06:05:40;;;;;;;17.73;7.70;;;-4.50;99.90;;;;;;5033922;28;20052;-68
2022/12/11 06:08:06;;;;;;;20.90;8.93;;;-4.70;99.90;;;;;;5027216;28;20869;-67
2022/12/11 06:10:32;;;;;;;20.20;8.75;;;-4.70;99.90;;;;;;5034300;28;20037;-67
2022/12/11 06:12:58;;;;;;;15.85;7.13;;;-4.60;99.90;;;;;;5038556;28;20068;-67
2022/12/11 06:15:24;;;;;;;18.17;7.88;;;-4.60;99.90;;;;;;5041336;28;20408;-67
2022/12/11 06:17:50;;;;;;;17.48;7.65;;;-4.70;99.90;;;;;;5031432;28;20029;-67
2022/12/11 06:20:16;;;;;;;15.07;6.80;;;-4.60;99.90;;;;;;5026705;28;20044;-67
2022/12/11 06:22:41;;;;;;;19.13;7.55;;;-4.50;99.90;;;;;;5035200;28;20056;-67
2022/12/11 06:25:08;;;;;;;13.07;7.18;;;-4.40;99.90;;;;;;5037456;28;20033;-67
2022/12/11 06:27:34;;;;;;;19.80;7.60;;;-4.40;99.90;;;;;;5028027;28;20041;-67
2022/12/11 06:30:00;;;;;;;17.13;7.35;;;-4.30;99.90;;;;;;5044564;28;20083;-67
2022/12/11 06:32:26;;;;;;;21.08;7.85;;;-4.30;99.90;;;;;;5033924;28;20044;-67
2022/12/11 06:34:52;;;;;;;15.68;7.75;;;-4.20;99.90;;;;;;5039203;28;20037;-67
2022/12/11 06:37:17;;;;;;;21.20;8.77;;;-4.20;99.90;;;;;;5022302;28;20159;-67
2022/12/11 06:39:43;;;;;;;16.55;8.55;;;-4.20;99.90;;;;;;5048099;28;20047;-67
2022/12/11 06:42:09;;;;;;;17.58;8.70;;;-4.30;99.90;;;;;;5031498;28;20131;-67
2022/12/11 06:44:35;;;;;;;17.90;8.20;;;-4.40;99.90;;;;;;5041567;28;20068;-68
2022/12/11 06:47:00;;;;;;;17.20;7.70;;;-4.60;99.90;;;;;;5036909;28;20048;-67
2022/12/11 06:49:26;;;;;;;16.02;7.97;;;-4.50;99.90;;;;;;5034658;28;20081;-67
2022/12/11 06:51:52;;;;;;;17.42;8.27;;;-4.70;99.90;;;;;;5028290;28;20045;-67
2022/12/11 06:54:18;;;;;;;19.40;9.00;;;-4.60;99.90;;;;;;5043765;28;20041;-67
2022/12/11 06:56:43;;;;;;;17.42;7.10;;;-4.60;99.90;;;;;;5034955;28;20121;-67
2022/12/11 06:59:12;;;;;;;16.52;7.72;;;-4.60;99.90;;;;;;5037111;28;20040;-67
2022/12/11 07:01:39;;;;;;;20.77;8.57;;;-4.70;99.90;;;;;;5042308;28;20059;-67
2022/12/11 07:04:05;;;;;;;16.02;7.82;;;-4.80;99.90;;;;;;5030644;28;20098;-67
2022/12/11 07:06:31;;;;;;;17.67;7.40;;;-4.80;99.90;;;;;;5041752;28;20044;-66
2022/12/11 07:08:56;;;;;;;13.52;6.80;;;-5.00;99.90;;;;;;5037076;28;20082;-67
2022/12/11 07:11:22;;;;;;;15.00;6.78;;;-5.20;99.90;;;;;;5046887;28;20431;-67
2022/12/11 07:13:48;;;;;;;19.95;7.30;;;-5.10;99.90;;;;;;5030591;28;20037;-67
2022/12/11 07:16:16;;;;;;;13.82;6.63;;;-5.00;99.90;;;;;;5043893;28;20408;-67
2022/12/11 07:18:46;;;;;;;14.48;6.85;;;-4.90;99.90;;;;;;5034849;28;20036;-67
2022/12/11 07:21:12;;;;;;;15.10;6.97;;;-4.80;99.90;;;;;;5047120;28;20529;-66
2022/12/11 07:23:39;;;;;;;15.38;6.75;;;-4.80;99.90;;;;;;5032220;28;20045;-66
2022/12/11 07:26:11;;;;;;;12.68;6.35;;;-4.70;99.90;;;;;;5029270;28;20033;-66
2022/12/11 07:28:37;;;;;;;16.27;7.35;;;-4.70;99.90;;;;;;5040679;28;20124;-66
2022/12/11 07:31:12;;;;;;;14.50;6.75;;;-4.80;99.90;;;;;;5037426;28;20141;-66
2022/12/11 07:33:38;;;;;;;16.80;6.28;;;-4.80;99.90;;;;;;5032219;28;20091;-66
2022/12/11 07:36:06;;;;;;;16.25;6.95;;;-5.00;99.90;;;;;;5042758;28;20025;-66
2022/12/11 07:38:32;;;;;;;15.05;7.13;;;-4.80;99.90;;;;;;5032514;28;20071;-65
2022/12/11 07:41:06;;;;;;;16.08;7.20;;;-4.90;99.90;;;;;;5037625;28;20056;-66
2022/12/11 07:43:34;;;;;;;15.75;7.50;;;-4.90;99.90;;;;;;5041265;28;20087;-66
2022/12/11 07:46:01;;;;;;;17.48;8.18;;;-4.90;99.90;;;;;;5030362;28;20044;-66
2022/12/11 07:48:27;;;;;;;21.55;9.52;;;-4.70;99.90;;;;;;5035637;28;20128;-66
2022/12/11 07:50:53;;;;;;;22.30;8.75;;;-4.60;99.90;;;;;;5035223;28;20433;-66
2022/12/11 07:53:18;;;;;;;22.90;8.88;;;-4.40;99.90;;;;;;5034699;28;20041;-66
2022/12/11 07:55:44;;;;;;;25.23;9.38;;;-4.10;99.90;;;;;;5042585;28;20500;-66
2022/12/11 07:58:10;;;;;;;20.77;8.32;;;-3.90;99.90;;;;;;5030010;28;20512;-66
2022/12/11 08:00:35;;;;;;;18.50;7.47;;;-3.70;99.90;;;;;;5040436;28;20076;-66
2022/12/11 08:03:01;;;;;;;16.48;7.25;;;-3.70;99.90;;;;;;5036937;28;20041;-66
2022/12/11 08:05:27;;;;;;;19.98;8.00;;;-3.60;99.90;;;;;;5026793;28;20052;-66
2022/12/11 08:07:53;;;;;;;18.27;7.75;;;-3.90;99.90;;;;;;5026752;28;20065;-66
2022/12/11 08:10:18;;;;;;;14.90;6.68;;;-3.90;99.90;;;;;;5027127;28;20036;-66
2022/12/11 08:12:44;;;;;;;16.77;7.55;;;-3.60;99.90;;;;;;5029297;28;20029;-66
2022/12/11 08:15:10;;;;;;;16.02;7.38;;;-3.20;99.90;;;;;;5029590;28;20120;-66
2022/12/11 08:17:36;;;;;;;15.32;7.30;;;-3.40;99.90;;;;;;5030729;28;20033;-66
2022/12/11 08:20:02;;;;;;;13.07;6.50;;;-3.70;99.90;;;;;;5013160;28;20041;-66
2022/12/11 08:22:27;;;;;;;12.88;6.05;;;-3.80;99.90;;;;;;5030051;28;20050;-66
2022/12/11 08:24:53;;;;;;;20.58;7.82;;;-3.80;99.90;;;;;;5029799;28;20485;-66
2022/12/11 08:27:19;;;;;;;20.17;8.10;;;-3.70;99.90;;;;;;5012648;28;20037;-66
2022/12/11 08:29:46;;;;;;;15.32;7.07;;;-3.70;99.90;;;;;;5030757;28;20064;-66
2022/12/11 08:32:12;;;;;;;14.50;6.55;;;-3.60;99.90;;;;;;5030110;28;20052;-66
2022/12/11 08:34:39;;;;;;;13.90;6.60;;;-3.40;99.90;;;;;;5029994;28;20052;-66
2022/12/11 08:37:04;;;;;;;18.00;8.32;;;-3.40;99.90;;;;;;5030351;28;20037;-66
2022/12/11 08:39:30;;;;;;;14.73;7.05;;;-3.20;99.90;;;;;;5030355;28;20056;-66
2022/12/11 08:41:56;;;;;;;16.67;7.32;;;-3.00;99.90;;;;;;5029620;28;20049;-66
2022/12/11 08:44:23;;;;;;;20.38;8.23;;;-2.80;99.90;;;;;;5029949;28;20033;-66
2022/12/11 08:46:49;;;;;;;18.10;7.78;;;-2.60;99.90;;;;;;5030504;28;20104;-65
2022/12/11 08:49:15;;;;;;;21.83;10.23;;;-2.00;99.90;;;;;;5030081;28;20040;-65
2022/12/11 08:51:41;;;;;;;26.98;13.23;;;-1.60;99.90;;;;;;5030223;28;20044;-65
2022/12/11 08:54:08;;;;;;;24.77;13.02;;;-1.10;99.90;;;;;;5029904;28;20414;-65
2022/12/11 08:56:34;;;;;;;25.13;12.63;;;-0.90;99.90;;;;;;5030557;28;20404;-65
2022/12/11 08:59:00;;;;;;;24.08;11.48;;;-0.80;99.90;;;;;;5029372;28;20117;-66
2022/12/11 09:01:27;;;;;;;21.52;9.85;;;-1.00;99.90;;;;;;5028494;28;20053;-65
2022/12/11 09:03:54;;;;;;;22.67;11.20;;;-0.90;99.90;;;;;;5028899;28;20041;-65
2022/12/11 09:06:23;;;;;;;27.85;12.25;;;-0.70;99.90;;;;;;5030174;28;20560;-65
2022/12/11 09:08:51;;;;;;;26.42;12.80;;;-0.70;99.90;;;;;;5029881;28;20496;-66
2022/12/11 09:11:19;;;;;;;23.92;10.63;;;-0.60;99.90;;;;;;5028065;28;20044;-66
2022/12/11 09:13:45;;;;;;;21.90;11.23;;;-0.40;99.90;;;;;;5027317;28;20488;-66
2022/12/11 09:16:15;;;;;;;25.85;11.63;;;-0.70;99.90;;;;;;5029339;28;20044;-65
2022/12/11 09:18:44;;;;;;;19.40;9.95;;;-0.70;99.90;;;;;;5027560;28;20125;-66
2022/12/11 09:21:12;;;;;;;18.60;8.95;;;-0.40;99.90;;;;;;5029033;28;20049;-65
2022/12/11 09:23:38;;;;;;;13.35;7.47;;;-0.20;99.90;;;;;;5027229;28;20134;-66
2022/12/11 09:26:06;;;;;;;16.83;8.88;;;-0.50;99.90;;;;;;4971352;28;20052;-66
2022/12/11 09:28:32;;;;;;;19.48;9.02;;;-0.30;99.90;;;;;;4983006;28;20048;-66
2022/12/11 09:30:58;;;;;;;19.33;7.97;;;-0.10;99.90;;;;;;5029179;28;20034;-65
2022/12/11 09:33:24;;;;;;;23.77;9.48;;;0.20;99.90;;;;;;5028948;28;20392;-68
2022/12/11 09:35:57;;;;;;;23.38;12.23;;;0.50;99.90;;;;;;5029815;28;20124;-67
2022/12/11 09:38:23;;;;;;;26.45;13.02;;;0.50;99.90;;;;;;5029394;28;20056;-66
2022/12/11 09:40:49;;;;;;;22.10;10.63;;;0.40;99.90;;;;;;5028534;28;20404;-66
2022/12/11 09:43:37;;;;;;;23.48;10.50;;;0.50;99.90;;;;;;5027430;28;20041;-67
2022/12/11 09:46:10;;;;;;;20.70;10.60;;;0.50;99.90;;;;;;5029159;28;20041;-66
2022/12/11 09:48:38;;;;;;;25.50;11.65;;;0.30;99.90;;;;;;5028085;28;20404;-67
2022/12/11 09:51:35;;;;;;;20.13;10.07;;;0.00;99.90;;;;;;5009553;28;20128;-68
2022/12/11 09:54:03;;;;;;;19.48;10.88;;;-0.40;99.90;;;;;;5027574;28;20057;-68
2022/12/11 09:56:29;;;;;;;36.60;17.58;;;-0.20;99.90;;;;;;5027546;28;20033;-68
2022/12/11 09:59:10;;;;;;;22.65;11.95;;;-0.10;99.90;;;;;;5028096;28;20049;-68
2022/12/11 10:01:44;;;;;;;;;;;0.10;99.90;;;;;;5029104;28;20057;-68
2022/12/11 10:04:31;;;;;;;47.05;18.45;;;-0.10;99.90;;;;;;5027421;28;19917;-68
2022/12/11 10:07:12;;;;;;;37.38;16.15;;;-0.20;99.90;;;;;;5027993;28;20424;-68
2022/12/11 10:10:35;;;;;;;17.92;9.50;;;0.00;99.90;;;;;;5011170;28;20464;-68
2022/12/11 10:13:10;;;;;;;19.85;10.45;;;0.10;99.90;;;;;;4947551;28;20074;-69
2022/12/11 10:15:39;;;;;;;22.85;12.00;;;0.40;99.90;;;;;;4947417;29;20114;-68
2022/12/11 10:18:13;;;;;;;18.38;9.73;;;0.80;99.90;;;;;;4983128;28;20041;-68
2022/12/11 10:20:41;;;;;;;21.08;10.13;;;0.70;99.90;;;;;;5028526;28;20045;-68
2022/12/11 10:23:13;;;;;;;17.75;9.13;;;0.70;99.90;;;;;;5028654;28;20152;-68
2022/12/11 10:25:43;;;;;;;18.77;9.35;;;0.60;99.90;;;;;;5028273;28;20046;-68
2022/12/11 10:28:14;;;;;;;20.88;10.10;;;0.50;99.90;;;;;;5027908;28;20054;-68
2022/12/11 10:30:54;;;;;;;23.02;10.68;;;0.20;99.90;;;;;;5027856;28;20412;-67
2022/12/11 10:33:48;;;;;;;21.33;10.48;;;0.10;99.90;;;;;;5027423;28;20145;-67
2022/12/11 10:36:24;;;;;;;19.08;8.93;;;-0.30;99.90;;;;;;5028317;28;20049;-67
2022/12/11 10:38:50;;;;;;;17.10;9.48;;;-0.20;99.90;;;;;;5028007;28;20075;-68
2022/12/11 10:41:20;;;;;;;15.68;8.65;;;-0.10;99.90;;;;;;5028314;28;20492;-67
2022/12/11 10:43:50;;;;;;;17.92;9.70;;;-0.60;99.90;;;;;;5028938;28;20046;-68
2022/12/11 10:46:19;;;;;;;20.65;9.35;;;-0.50;99.90;;;;;;5028295;28;20052;-67
2022/12/11 10:48:57;;;;;;;13.68;7.43;;;-0.50;99.90;;;;;;5027289;28;20809;-68
2022/12/11 10:51:31;;;;;;;21.90;10.75;;;-0.30;99.90;;;;;;5027055;28;20049;-67
2022/12/11 10:54:15;;;;;;;20.80;9.70;;;-0.40;99.90;;;;;;5028117;28;20553;-67
2022/12/11 10:56:45;;;;;;;20.35;10.15;;;-0.20;99.90;;;;;;5028199;28;20565;-67
2022/12/11 10:59:44;;;;;;;21.00;11.48;;;-0.30;99.90;;;;;;5028460;28;20111;-67
2022/12/11 11:02:34;;;;;;;19.13;10.05;;;-0.20;99.90;;;;;;5023348;28;20566;-67
2022/12/11 11:05:11;;;;;;;21.15;11.02;;;-0.30;99.90;;;;;;5027802;28;20040;-67
2022/12/11 11:07:37;;;;;;;30.48;15.35;;;-0.60;99.90;;;;;;5027506;28;20404;-67
2022/12/11 11:10:09;;;;;;;19.75;10.30;;;-0.70;99.90;;;;;;5028213;28;20116;-68
2022/12/11 11:12:47;;;;;;;17.20;9.35;;;-0.70;99.90;;;;;;5027921;28;20065;-67
2022/12/11 11:15:24;;;;;;;21.30;11.50;;;-0.90;99.90;;;;;;5010325;28;20061;-67
2022/12/11 11:17:55;;;;;;;19.38;10.65;;;-0.80;99.90;;;;;;5027049;28;20033;-67
2022/12/11 11:20:24;;;;;;;17.35;9.63;;;-0.60;99.90;;;;;;5027591;28;20072;-67
2022/12/11 11:22:54;;;;;;;25.52;10.55;;;-0.50;99.90;;;;;;5027531;28;20060;-67
2022/12/11 11:25:26;;;;;;;18.65;9.25;;;-0.50;99.90;;;;;;5027577;28;20133;-67
2022/12/11 11:27:56;;;;;;;15.63;9.70;;;-0.30;99.90;;;;;;5027197;28;20033;-67
2022/12/11 11:30:29;;;;;;;24.52;10.18;;;-0.40;99.90;;;;;;5027273;28;20041;-68
2022/12/11 11:33:18;;;;;;;30.60;13.52;;;-0.50;99.90;;;;;;5026455;28;20697;-68
2022/12/11 11:36:02;;;;;;;24.45;11.25;;;-0.70;99.90;;;;;;5009990;28;20067;-67
2022/12/11 11:38:30;;;;;;;19.52;9.75;;;-0.60;99.90;;;;;;5027353;28;20072;-67
2022/12/11 11:41:18;;;;;;;18.40;9.82;;;-0.50;99.90;;;;;;5026816;28;20485;-67
2022/12/11 11:43:52;;;;;;;22.42;10.00;;;-0.50;99.90;;;;;;5027258;28;20041;-67
2022/12/11 11:46:39;;;;;;;22.65;10.60;;;-0.50;99.90;;;;;;5026566;28;20034;-68
2022/12/11 11:49:23;;;;;;;20.48;9.88;;;-0.60;99.90;;;;;;5026582;28;20076;-68
2022/12/11 11:51:56;;;;;;;20.67;9.88;;;-0.60;99.90;;;;;;5009887;28;20523;-67
2022/12/11 11:54:47;;;;;;;22.05;10.32;;;-0.50;99.90;;;;;;5034500;28;20040;-67
2022/12/11 11:57:41;;;;;;;18.83;10.13;;;-0.40;99.90;;;;;;5027377;28;20509;-67
2022/12/11 12:00:28;;;;;;;19.17;9.13;;;-0.60;99.90;;;;;;5025946;28;20463;-68
2022/12/11 12:03:02;;;;;;;18.73;10.07;;;-0.60;99.90;;;;;;5029655;28;20049;-67
2022/12/11 12:05:33;;;;;;;17.42;8.90;;;-0.50;99.90;;;;;;5046985;28;20041;-68
2022/12/11 12:08:24;;;;;;;18.23;9.88;;;-0.30;99.90;;;;;;5038957;28;20111;-68
2022/12/11 12:11:01;;;;;;;17.40;9.02;;;-0.30;99.90;;;;;;5026761;28;20087;-68
2022/12/11 12:13:50;;;;;;;20.90;9.93;;;-0.20;99.90;;;;;;5037802;28;20083;-68
2022/12/11 12:16:38;;;;;;;18.02;9.52;;;-0.60;99.90;;;;;;5039758;28;20045;-68
2022/12/11 12:19:20;;;;;;;18.00;9.63;;;-0.50;99.90;;;;;;5033606;28;20053;-68
2022/12/11 12:21:53;;;;;;;22.83;10.25;;;-0.70;99.90;;;;;;5027730;28;20088;-68
2022/12/11 12:24:31;;;;;;;21.52;10.18;;;-0.80;99.90;;;;;;5028638;28;20045;-68
2022/12/11 12:27:17;;;;;;;19.73;9.52;;;-0.80;99.90;;;;;;5009005;28;20065;-69
2022/12/11 12:29:45;;;;;;;18.85;9.20;;;-0.70;99.90;;;;;;5006320;28;20045;-68
2022/12/11 12:32:21;;;;;;;20.88;10.23;;;-0.50;99.90;;;;;;5005649;28;20475;-68
2022/12/11 12:35:14;;;;;;;21.58;9.40;;;-0.70;99.90;;;;;;5006830;28;20091;-68
2022/12/11 12:37:49;;;;;;;18.42;8.80;;;-0.70;99.90;;;;;;4991297;28;20042;-68
2022/12/11 12:40:24;;;;;;;23.98;10.70;;;-0.40;99.90;;;;;;5023809;28;20157;-68
2022/12/11 12:43:24;;;;;;;25.13;11.82;;;-0.20;99.90;;;;;;5025179;28;20053;-68
2022/12/11 12:46:04;;;;;;;30.92;14.38;;;-0.30;99.90;;;;;;5025049;28;20053;-68
2022/12/11 12:48:30;;;;;;;31.58;15.13;;;-0.70;99.90;;;;;;5025107;28;20065;-68
2022/12/11 12:50:56;;;;;;;28.63;14.80;;;-0.80;99.90;;;;;;5025606;28;20144;-68
2022/12/11 12:53:31;;;;;;;30.20;14.77;;;-0.70;99.90;;;;;;5026441;28;20049;-69
2022/12/11 12:55:57;;;;;;;31.73;15.13;;;-0.60;99.90;;;;;;5026285;28;20036;-69
2022/12/11 12:58:28;;;;;;;31.58;15.93;;;-0.40;99.90;;;;;;5027750;28;20041;-70
2022/12/11 13:01:05;;;;;;;31.08;14.50;;;-0.30;99.90;;;;;;5029609;28;20041;-70
2022/12/11 13:03:48;;;;;;;35.75;16.08;;;-0.60;99.90;;;;;;5012016;28;20042;-70